sensor_id;sensor_type;location;lat;lon;timestamp;pressure;altitude;pressure_sealevel;temperature;humidity
78317;BME280;67572;50.930;18.276;2023-04-04T00:01:55;99986.59;;;-2.50;71.64
78317;BME280;67572;50.930;18.276;2023-04-04T00:05:02;99976.16;;;-2.44;71.26
78317;BME280;67572;50.930;18.276;2023-04-04T00:08:07;99976.16;;;-2.42;70.89
78317;BME280;67572;50.930;18.276;2023-04-04T00:11:11;99976.19;;;-2.48;71.19
78317;BME280;67572;50.930;18.276;2023-04-04T00:14:15;99972.72;;;-2.54;71.25
78317;BME280;67572;50.930;18.276;2023-04-04T00:17:18;99956.28;;;-2.63;71.87
78317;BME280;67572;50.930;18.276;2023-04-04T00:20:22;99959.72;;;-2.61;72.41
78317;BME280;67572;50.930;18.276;2023-04-04T00:23:27;99952.81;;;-2.64;72.15
78317;BME280;67572;50.930;18.276;2023-04-04T00:26:31;99951.88;;;-2.52;72.35
78317;BME280;67572;50.930;18.276;2023-04-04T00:29:35;99951.91;;;-2.61;72.28
78317;BME280;67572;50.930;18.276;2023-04-04T00:32:42;99948.47;;;-2.63;72.50
78317;BME280;67572;50.930;18.276;2023-04-04T00:35:47;99944.97;;;-2.65;72.53
78317;BME280;67572;50.930;18.276;2023-04-04T00:38:52;99946.75;;;-2.70;73.02
78317;BME280;67572;50.930;18.276;2023-04-04T00:41:56;99951.06;;;-2.69;73.04
78317;BME280;67572;50.930;18.276;2023-04-04T00:45:01;99949.34;;;-2.76;72.97
78317;BME280;67572;50.930;18.276;2023-04-04T00:48:05;99947.59;;;-2.74;73.08
78317;BME280;67572;50.930;18.276;2023-04-04T00:51:11;99943.28;;;-2.82;73.43
78317;BME280;67572;50.930;18.276;2023-04-04T00:54:16;99942.41;;;-2.76;73.00
78317;BME280;67572;50.930;18.276;2023-04-04T00:57:20;99941.56;;;-2.80;73.21
78317;BME280;67572;50.930;18.276;2023-04-04T01:00:24;99944.16;;;-2.83;73.20
78317;BME280;67572;50.930;18.276;2023-04-04T01:03:28;99935.47;;;-2.80;72.91
78317;BME280;67572;50.930;18.276;2023-04-04T01:06:32;99937.22;;;-2.88;73.03
78317;BME280;67572;50.930;18.276;2023-04-04T01:09:37;99935.50;;;-2.85;73.18
78317;BME280;67572;50.930;18.276;2023-04-04T01:12:42;99946.75;;;-2.87;73.46
78317;BME280;67572;50.930;18.276;2023-04-04T01:15:46;99936.34;;;-2.87;73.31
78317;BME280;67572;50.930;18.276;2023-04-04T01:18:52;99934.63;;;-2.84;73.84
78317;BME280;67572;50.930;18.276;2023-04-04T01:21:58;99931.13;;;-2.76;73.35
78317;BME280;67572;50.930;18.276;2023-04-04T01:25:06;99929.41;;;-2.85;73.75
78317;BME280;67572;50.930;18.276;2023-04-04T01:28:14;99927.69;;;-2.85;73.73
78317;BME280;67572;50.930;18.276;2023-04-04T01:31:22;99933.75;;;-2.80;73.58
78317;BME280;67572;50.930;18.276;2023-04-04T01:34:37;99926.78;;;-2.82;73.99
78317;BME280;67572;50.930;18.276;2023-04-04T01:37:49;99919.00;;;-2.84;73.94
78317;BME280;67572;50.930;18.276;2023-04-04T01:41:01;99923.31;;;-2.87;74.18
78317;BME280;67572;50.930;18.276;2023-04-04T01:44:09;99919.88;;;-2.85;74.20
78317;BME280;67572;50.930;18.276;2023-04-04T01:47:13;99921.63;;;-2.91;74.28
78317;BME280;67572;50.930;18.276;2023-04-04T01:50:18;99924.19;;;-2.81;73.46
78317;BME280;67572;50.930;18.276;2023-04-04T01:53:22;99917.25;;;-2.88;73.83
78317;BME280;67572;50.930;18.276;2023-04-04T01:56:26;99918.97;;;-2.81;73.63
78317;BME280;67572;50.930;18.276;2023-04-04T01:59:31;99913.78;;;-2.82;73.64
78317;BME280;67572;50.930;18.276;2023-04-04T02:02:35;99913.75;;;-2.73;73.53
78317;BME280;67572;50.930;18.276;2023-04-04T02:05:39;99912.03;;;-2.80;73.40
78317;BME280;67572;50.930;18.276;2023-04-04T02:08:45;99916.38;;;-2.77;73.14
78317;BME280;67572;50.930;18.276;2023-04-04T02:11:49;99917.25;;;-2.78;73.25
78317;BME280;67572;50.930;18.276;2023-04-04T02:14:54;99916.41;;;-2.79;73.69
78317;BME280;67572;50.930;18.276;2023-04-04T02:17:57;99917.25;;;-2.77;73.37
78317;BME280;67572;50.930;18.276;2023-04-04T02:21:03;99920.75;;;-2.84;73.13
78317;BME280;67572;50.930;18.276;2023-04-04T02:24:07;99918.13;;;-2.90;73.83
78317;BME280;67572;50.930;18.276;2023-04-04T02:27:10;99922.47;;;-2.91;73.92
78317;BME280;67572;50.930;18.276;2023-04-04T02:30:15;99921.66;;;-3.02;73.86
78317;BME280;67572;50.930;18.276;2023-04-04T02:33:21;99925.09;;;-2.94;73.28
78317;BME280;67572;50.930;18.276;2023-04-04T02:36:25;99926.84;;;-3.07;73.46
78317;BME280;67572;50.930;18.276;2023-04-04T02:39:30;99919.03;;;-2.97;73.46
78317;BME280;67572;50.930;18.276;2023-04-04T02:42:34;99918.13;;;-2.90;73.05
78317;BME280;67572;50.930;18.276;2023-04-04T02:45:39;99928.56;;;-3.04;73.65
78317;BME280;67572;50.930;18.276;2023-04-04T02:48:53;99931.16;;;-2.96;73.63
78317;BME280;67572;50.930;18.276;2023-04-04T02:51:57;99930.28;;;-3.04;73.47
78317;BME280;67572;50.930;18.276;2023-04-04T02:55:06;99928.56;;;-3.02;73.77
78317;BME280;67572;50.930;18.276;2023-04-04T02:58:13;99937.22;;;-3.03;73.52
78317;BME280;67572;50.930;18.276;2023-04-04T03:01:18;99935.53;;;-3.21;74.12
78317;BME280;67572;50.930;18.276;2023-04-04T03:04:22;99937.25;;;-3.00;73.78
78317;BME280;67572;50.930;18.276;2023-04-04T03:07:25;99939.84;;;-3.13;74.42
78317;BME280;67572;50.930;18.276;2023-04-04T03:10:29;99948.50;;;-3.06;73.76
78317;BME280;67572;50.930;18.276;2023-04-04T03:13:36;99951.13;;;-3.09;73.36
78317;BME280;67572;50.930;18.276;2023-04-04T03:16:41;99948.50;;;-2.98;73.56
78317;BME280;67572;50.930;18.276;2023-04-04T03:19:45;99937.22;;;-2.88;72.78
78317;BME280;67572;50.930;18.276;2023-04-04T03:22:49;99939.81;;;-2.84;72.71
78317;BME280;67572;50.930;18.276;2023-04-04T03:25:53;99942.44;;;-2.91;72.76
78317;BME280;67572;50.930;18.276;2023-04-04T03:28:57;99932.91;;;-2.94;72.59
78317;BME280;67572;50.930;18.276;2023-04-04T03:32:04;99941.53;;;-2.83;72.38
78317;BME280;67572;50.930;18.276;2023-04-04T03:35:08;99937.22;;;-2.87;72.20
78317;BME280;67572;50.930;18.276;2023-04-04T03:38:14;99936.34;;;-2.96;72.80
78317;BME280;67572;50.930;18.276;2023-04-04T03:41:18;99941.59;;;-3.15;73.58
78317;BME280;67572;50.930;18.276;2023-04-04T03:44:23;99938.97;;;-3.12;74.04
78317;BME280;67572;50.930;18.276;2023-04-04T03:47:27;99925.97;;;-3.18;74.31
78317;BME280;67572;50.930;18.276;2023-04-04T03:50:35;99933.78;;;-3.12;74.91
78317;BME280;67572;50.930;18.276;2023-04-04T03:53:39;99927.72;;;-3.06;74.71
78317;BME280;67572;50.930;18.276;2023-04-04T03:56:42;99930.28;;;-2.95;74.26
78317;BME280;67572;50.930;18.276;2023-04-04T03:59:48;99928.56;;;-3.01;73.88
78317;BME280;67572;50.930;18.276;2023-04-04T04:02:57;99924.22;;;-2.91;73.78
78317;BME280;67572;50.930;18.276;2023-04-04T04:06:00;99919.84;;;-2.80;73.03
78317;BME280;67572;50.930;18.276;2023-04-04T04:09:04;99919.84;;;-2.80;73.00
78317;BME280;67572;50.930;18.276;2023-04-04T04:12:07;99917.25;;;-2.77;72.84
78317;BME280;67572;50.930;18.276;2023-04-04T04:15:15;99920.69;;;-2.67;72.28
78317;BME280;67572;50.930;18.276;2023-04-04T04:18:22;99921.53;;;-2.65;72.03
78317;BME280;67572;50.930;18.276;2023-04-04T04:21:28;99922.41;;;-2.54;73.30
78317;BME280;67572;50.930;18.276;2023-04-04T04:24:31;99919.75;;;-2.45;72.81
78317;BME280;67572;50.930;18.276;2023-04-04T04:27:37;99920.66;;;-2.60;72.55
78317;BME280;67572;50.930;18.276;2023-04-04T04:30:42;99918.06;;;-2.54;72.70
78317;BME280;67572;50.930;18.276;2023-04-04T04:33:51;99931.03;;;-2.44;72.70
78317;BME280;67572;50.930;18.276;2023-04-04T04:36:59;99924.16;;;-2.56;73.15
78317;BME280;67572;50.930;18.276;2023-04-04T04:40:14;99918.94;;;-2.56;72.59
78317;BME280;67572;50.930;18.276;2023-04-04T04:43:29;99920.63;;;-2.51;71.97
78317;BME280;67572;50.930;18.276;2023-04-04T04:46:32;99913.69;;;-2.47;72.39
78317;BME280;67572;50.930;18.276;2023-04-04T04:49:43;99915.41;;;-2.44;72.67
78317;BME280;67572;50.930;18.276;2023-04-04T04:52:55;99911.03;;;-2.38;72.72
78317;BME280;67572;50.930;18.276;2023-04-04T04:56:01;99914.50;;;-2.33;72.41
78317;BME280;67572;50.930;18.276;2023-04-04T04:59:05;99917.09;;;-2.25;72.69
78317;BME280;67572;50.930;18.276;2023-04-04T05:02:12;99921.34;;;-2.12;72.88
78317;BME280;67572;50.930;18.276;2023-04-04T05:05:20;99915.31;;;-2.20;72.14
78317;BME280;67572;50.930;18.276;2023-04-04T05:08:24;99915.28;;;-2.14;71.28
78317;BME280;67572;50.930;18.276;2023-04-04T05:11:50;99911.78;;;-2.13;71.04
78317;BME280;67572;50.930;18.276;2023-04-04T05:14:58;99907.50;;;-2.17;70.15
78317;BME280;67572;50.930;18.276;2023-04-04T05:18:02;99901.38;;;-2.14;70.58
78317;BME280;67572;50.930;18.276;2023-04-04T05:21:11;99907.38;;;-1.99;69.56
78317;BME280;67572;50.930;18.276;2023-04-04T05:24:16;99913.50;;;-2.01;68.95
78317;BME280;67572;50.930;18.276;2023-04-04T05:27:19;99908.25;;;-1.95;69.42
78317;BME280;67572;50.930;18.276;2023-04-04T05:30:29;99901.34;;;-2.02;68.39
78317;BME280;67572;50.930;18.276;2023-04-04T05:33:45;99906.56;;;-2.04;68.72
78317;BME280;67572;50.930;18.276;2023-04-04T05:37:10;99906.50;;;-1.98;67.56
78317;BME280;67572;50.930;18.276;2023-04-04T05:40:16;99906.44;;;-1.84;67.78
78317;BME280;67572;50.930;18.276;2023-04-04T05:43:24;99916.81;;;-1.76;67.48
78317;BME280;67572;50.930;18.276;2023-04-04T05:46:34;99913.31;;;-1.72;66.37
78317;BME280;67572;50.930;18.276;2023-04-04T05:49:38;99905.44;;;-1.64;65.93
78317;BME280;67572;50.930;18.276;2023-04-04T05:52:45;99909.72;;;-1.56;64.91
78317;BME280;67572;50.930;18.276;2023-04-04T05:55:50;99906.22;;;-1.55;64.57
78317;BME280;67572;50.930;18.276;2023-04-04T05:59:02;99913.19;;;-1.55;63.64
78317;BME280;67572;50.930;18.276;2023-04-04T06:02:09;99921.81;;;-1.46;62.25
78317;BME280;67572;50.930;18.276;2023-04-04T06:05:16;99917.44;;;-1.42;61.82
78317;BME280;67572;50.930;18.276;2023-04-04T06:08:21;99931.28;;;-1.32;61.23
78317;BME280;67572;50.930;18.276;2023-04-04T06:11:25;99926.97;;;-1.40;61.00
78317;BME280;67572;50.930;18.276;2023-04-04T06:14:36;99923.50;;;-1.40;60.39
78317;BME280;67572;50.930;18.276;2023-04-04T06:17:44;99924.28;;;-1.27;60.57
78317;BME280;67572;50.930;18.276;2023-04-04T06:20:48;99923.44;;;-1.32;59.65
78317;BME280;67572;50.930;18.276;2023-04-04T06:23:54;99926.03;;;-1.31;59.14
78317;BME280;67572;50.930;18.276;2023-04-04T06:26:57;99924.16;;;-1.14;59.06
78317;BME280;67572;50.930;18.276;2023-04-04T06:30:02;99925.03;;;-1.15;58.32
78317;BME280;67572;50.930;18.276;2023-04-04T06:33:06;99924.03;;;-0.97;58.96
78317;BME280;67572;50.930;18.276;2023-04-04T06:36:15;99918.78;;;-0.95;58.61
78317;BME280;67572;50.930;18.276;2023-04-04T06:39:22;99931.88;;;-1.01;58.94
78317;BME280;67572;50.930;18.276;2023-04-04T06:42:28;99924.00;;;-0.98;58.30
78317;BME280;67572;50.930;18.276;2023-04-04T06:45:36;99917.94;;;-1.00;58.58
78317;BME280;67572;50.930;18.276;2023-04-04T06:48:39;99918.81;;;-1.00;58.07
78317;BME280;67572;50.930;18.276;2023-04-04T06:51:43;99916.19;;;-0.97;57.85
78317;BME280;67572;50.930;18.276;2023-04-04T06:54:53;99914.44;;;-0.96;57.20
78317;BME280;67572;50.930;18.276;2023-04-04T06:57:57;99916.13;;;-0.89;56.45
78317;BME280;67572;50.930;18.276;2023-04-04T07:01:01;99912.75;;;-1.02;56.86
78317;BME280;67572;50.930;18.276;2023-04-04T07:04:05;99917.75;;;-0.80;56.82
78317;BME280;67572;50.930;18.276;2023-04-04T07:07:09;99922.88;;;-0.70;56.92
78317;BME280;67572;50.930;18.276;2023-04-04T07:10:15;99920.25;;;-0.67;57.09
78317;BME280;67572;50.930;18.276;2023-04-04T07:13:18;99921.81;;;-0.52;57.41
78317;BME280;67572;50.930;18.276;2023-04-04T07:16:21;99914.91;;;-0.61;56.11
78317;BME280;67572;50.930;18.276;2023-04-04T07:19:28;99914.06;;;-0.61;56.78
78317;BME280;67572;50.930;18.276;2023-04-04T07:22:36;99913.97;;;-0.52;56.96
78317;BME280;67572;50.930;18.276;2023-04-04T07:25:41;99917.50;;;-0.56;55.36
78317;BME280;67572;50.930;18.276;2023-04-04T07:28:45;99911.47;;;-0.63;55.22
78317;BME280;67572;50.930;18.276;2023-04-04T07:31:48;99906.31;;;-0.69;54.85
78317;BME280;67572;50.930;18.276;2023-04-04T07:34:52;99909.78;;;-0.67;55.54
78317;BME280;67572;50.930;18.276;2023-04-04T07:37:56;99908.19;;;-0.80;54.49
78317;BME280;67572;50.930;18.276;2023-04-04T07:41:01;99901.72;;;-0.45;55.77
78317;BME280;67572;50.930;18.276;2023-04-04T07:44:05;99904.53;;;-0.65;54.60
78317;BME280;67572;50.930;18.276;2023-04-04T07:47:09;99902.50;;;-0.40;55.39
78317;BME280;67572;50.930;18.276;2023-04-04T07:50:13;99908.56;;;-0.37;54.01
78317;BME280;67572;50.930;18.276;2023-04-04T07:53:17;99916.81;;;-0.72;53.30
78317;BME280;67572;50.930;18.276;2023-04-04T07:56:21;99909.47;;;-0.38;54.17
78317;BME280;67572;50.930;18.276;2023-04-04T07:59:25;99906.72;;;-0.27;54.44
78317;BME280;67572;50.930;18.276;2023-04-04T08:02:28;99904.25;;;-0.41;53.70
78317;BME280;67572;50.930;18.276;2023-04-04T08:05:32;99910.09;;;-0.19;53.89
78317;BME280;67572;50.930;18.276;2023-04-04T08:08:36;99910.03;;;-0.14;54.03
78317;BME280;67572;50.930;18.276;2023-04-04T08:11:41;99910.91;;;-0.15;54.26
78317;BME280;67572;50.930;18.276;2023-04-04T08:14:45;99912.56;;;-0.10;53.11
78317;BME280;67572;50.930;18.276;2023-04-04T08:17:48;99914.19;;;0.02;52.66
78317;BME280;67572;50.930;18.276;2023-04-04T08:20:52;99912.91;;;-0.36;52.12
78317;BME280;67572;50.930;18.276;2023-04-04T08:23:55;99912.72;;;-0.20;52.27
78317;BME280;67572;50.930;18.276;2023-04-04T08:27:00;99905.13;;;-0.40;51.60
78317;BME280;67572;50.930;18.276;2023-04-04T08:30:07;99910.25;;;-0.30;52.54
78317;BME280;67572;50.930;18.276;2023-04-04T08:33:11;99906.16;;;0.16;53.41
78317;BME280;67572;50.930;18.276;2023-04-04T08:36:14;99904.50;;;0.09;52.79
78317;BME280;67572;50.930;18.276;2023-04-04T08:39:19;99907.63;;;-0.31;53.45
78317;BME280;67572;50.930;18.276;2023-04-04T08:42:27;99903.84;;;-0.09;52.46
78317;BME280;67572;50.930;18.276;2023-04-04T08:45:31;99905.00;;;-0.30;51.54
78317;BME280;67572;50.930;18.276;2023-04-04T08:48:36;99903.66;;;0.08;51.38
78317;BME280;67572;50.930;18.276;2023-04-04T08:51:41;99904.03;;;0.41;52.68
78317;BME280;67572;50.930;18.276;2023-04-04T08:54:47;99893.34;;;0.54;52.56
78317;BME280;67572;50.930;18.276;2023-04-04T08:57:53;99901.69;;;0.21;51.25
78317;BME280;67572;50.930;18.276;2023-04-04T09:00:57;99886.91;;;0.20;52.04
78317;BME280;67572;50.930;18.276;2023-04-04T09:04:01;99901.66;;;0.25;51.74
78317;BME280;67572;50.930;18.276;2023-04-04T09:07:05;99898.06;;;0.33;51.13
78317;BME280;67572;50.930;18.276;2023-04-04T09:10:10;99898.63;;;0.53;52.61
78317;BME280;67572;50.930;18.276;2023-04-04T09:13:15;99893.06;;;0.16;52.02
78317;BME280;67572;50.930;18.276;2023-04-04T09:16:19;99896.38;;;0.27;52.41
78317;BME280;67572;50.930;18.276;2023-04-04T09:19:23;99907.59;;;0.35;53.12
78317;BME280;67572;50.930;18.276;2023-04-04T09:22:27;99908.84;;;0.10;51.09
78317;BME280;67572;50.930;18.276;2023-04-04T09:25:31;99908.22;;;0.51;50.64
78317;BME280;67572;50.930;18.276;2023-04-04T09:28:35;99902.69;;;0.71;51.06
78317;BME280;67572;50.930;18.276;2023-04-04T09:31:40;99911.84;;;0.42;50.20
78317;BME280;67572;50.930;18.276;2023-04-04T09:34:47;99903.47;;;0.19;50.55
78317;BME280;67572;50.930;18.276;2023-04-04T09:37:51;99906.22;;;0.10;49.63
78317;BME280;67572;50.930;18.276;2023-04-04T09:40:55;99910.88;;;0.49;50.42
78317;BME280;67572;50.930;18.276;2023-04-04T09:44:00;99901.66;;;0.25;50.95
78317;BME280;67572;50.930;18.276;2023-04-04T09:47:23;99908.91;;;0.04;50.53
78317;BME280;67572;50.930;18.276;2023-04-04T09:50:30;99912.09;;;0.25;51.34
78317;BME280;67572;50.930;18.276;2023-04-04T09:53:35;99919.25;;;0.13;51.08
78317;BME280;67572;50.930;18.276;2023-04-04T09:56:40;99914.03;;;0.11;50.41
78317;BME280;67572;50.930;18.276;2023-04-04T09:59:46;99914.00;;;0.16;51.97
78317;BME280;67572;50.930;18.276;2023-04-04T10:02:50;99919.19;;;0.17;51.37
78317;BME280;67572;50.930;18.276;2023-04-04T10:05:55;99911.88;;;0.41;50.30
78317;BME280;67572;50.930;18.276;2023-04-04T10:09:00;99899.47;;;0.52;50.27
78317;BME280;67572;50.930;18.276;2023-04-04T10:12:08;99903.59;;;0.68;48.99
78317;BME280;67572;50.930;18.276;2023-04-04T10:15:14;99900.78;;;0.80;50.20
78317;BME280;67572;50.930;18.276;2023-04-04T10:18:18;99891.84;;;0.40;50.04
78317;BME280;67572;50.930;18.276;2023-04-04T10:21:24;99897.84;;;0.46;49.97
78317;BME280;67572;50.930;18.276;2023-04-04T10:24:29;99895.34;;;0.93;50.02
78317;BME280;67572;50.930;18.276;2023-04-04T10:27:32;99900.31;;;0.55;50.81
78317;BME280;67572;50.930;18.276;2023-04-04T10:30:41;99905.44;;;0.63;50.86
78317;BME280;67572;50.930;18.276;2023-04-04T10:34:09;99899.47;;;0.53;49.57
78317;BME280;67572;50.930;18.276;2023-04-04T10:37:21;99903.22;;;0.36;49.63
78317;BME280;67572;50.930;18.276;2023-04-04T10:40:30;99901.41;;;0.41;49.65
78317;BME280;67572;50.930;18.276;2023-04-04T10:43:40;99900.47;;;0.45;50.08
78317;BME280;67572;50.930;18.276;2023-04-04T10:46:50;99894.59;;;0.83;48.57
78317;BME280;67572;50.930;18.276;2023-04-04T10:49:55;99894.97;;;1.14;50.56
78317;BME280;67572;50.930;18.276;2023-04-04T10:52:59;99889.50;;;1.25;49.98
78317;BME280;67572;50.930;18.276;2023-04-04T10:56:05;99884.06;;;1.35;48.34
78317;BME280;67572;50.930;18.276;2023-04-04T10:59:11;99884.53;;;1.11;48.40
78317;BME280;67572;50.930;18.276;2023-04-04T11:02:17;99882.31;;;0.88;48.65
78317;BME280;67572;50.930;18.276;2023-04-04T11:05:22;99873.34;;;1.01;47.77
78317;BME280;67572;50.930;18.276;2023-04-04T11:08:27;99874.44;;;0.90;48.85
78317;BME280;67572;50.930;18.276;2023-04-04T11:12:06;99878.75;;;0.92;48.09
78317;BME280;67572;50.930;18.276;2023-04-04T11:15:12;99870.06;;;1.38;49.31
78317;BME280;67572;50.930;18.276;2023-04-04T11:18:18;99869.94;;;1.43;48.60
78317;BME280;67572;50.930;18.276;2023-04-04T11:21:34;99871.75;;;0.94;46.29
78317;BME280;67572;50.930;18.276;2023-04-04T11:24:47;99867.13;;;1.08;46.41
78317;BME280;67572;50.930;18.276;2023-04-04T11:27:53;99861.84;;;1.10;46.06
78317;BME280;67572;50.930;18.276;2023-04-04T11:31:23;99863.63;;;1.08;47.68
78317;BME280;67572;50.930;18.276;2023-04-04T11:34:32;99853.69;;;1.25;48.08
78317;BME280;67572;50.930;18.276;2023-04-04T11:37:42;99849.50;;;1.17;48.10
78317;BME280;67572;50.930;18.276;2023-04-04T11:40:52;99854.06;;;1.05;50.31
78317;BME280;67572;50.930;18.276;2023-04-04T11:44:02;99858.25;;;0.66;50.38
78317;BME280;67572;50.930;18.276;2023-04-04T11:47:11;99859.06;;;0.71;50.57
78317;BME280;67572;50.930;18.276;2023-04-04T11:50:17;99854.63;;;0.75;49.33
78317;BME280;67572;50.930;18.276;2023-04-04T11:53:21;99852.75;;;0.81;48.34
78317;BME280;67572;50.930;18.276;2023-04-04T11:56:25;99858.41;;;1.08;47.78
78317;BME280;67572;50.930;18.276;2023-04-04T11:59:29;99849.25;;;1.30;47.85
78317;BME280;67572;50.930;18.276;2023-04-04T12:02:34;99853.97;;;1.55;47.66
78317;BME280;67572;50.930;18.276;2023-04-04T12:05:40;99857.53;;;1.51;49.07
78317;BME280;67572;50.930;18.276;2023-04-04T12:08:45;99855.97;;;1.44;49.73
78317;BME280;67572;50.930;18.276;2023-04-04T12:11:49;99850.53;;;1.53;49.59
78317;BME280;67572;50.930;18.276;2023-04-04T12:14:53;99857.00;;;1.36;48.92
78317;BME280;67572;50.930;18.276;2023-04-04T12:18:20;99850.78;;;1.41;50.90
78317;BME280;67572;50.930;18.276;2023-04-04T12:21:25;99856.25;;;1.30;49.36
78317;BME280;67572;50.930;18.276;2023-04-04T12:24:29;99851.88;;;1.72;49.68
78317;BME280;67572;50.930;18.276;2023-04-04T12:27:33;99848.69;;;1.13;48.23
78317;BME280;67572;50.930;18.276;2023-04-04T12:30:37;99855.75;;;1.09;48.40
78317;BME280;67572;50.930;18.276;2023-04-04T12:33:41;99851.47;;;1.04;48.16
78317;BME280;67572;50.930;18.276;2023-04-04T12:36:47;99857.31;;;1.18;49.06
78317;BME280;67572;50.930;18.276;2023-04-04T12:39:51;99853.28;;;1.47;50.63
78317;BME280;67572;50.930;18.276;2023-04-04T12:42:56;99855.34;;;1.31;50.18
78317;BME280;67572;50.930;18.276;2023-04-04T12:46:01;99854.81;;;1.12;49.19
78317;BME280;67572;50.930;18.276;2023-04-04T12:49:05;99846.09;;;1.11;49.09
78317;BME280;67572;50.930;18.276;2023-04-04T12:52:18;99845.06;;;1.20;48.20
78317;BME280;67572;50.930;18.276;2023-04-04T12:55:24;99844.63;;;1.42;48.19
78317;BME280;67572;50.930;18.276;2023-04-04T12:58:28;99834.38;;;1.31;47.27
78317;BME280;67572;50.930;18.276;2023-04-04T13:01:31;99842.47;;;1.19;47.07
78317;BME280;67572;50.930;18.276;2023-04-04T13:04:35;99848.28;;;1.34;48.23
78317;BME280;67572;50.930;18.276;2023-04-04T13:07:43;99839.34;;;1.00;46.59
78317;BME280;67572;50.930;18.276;2023-04-04T13:11:01;99841.34;;;1.32;46.50
78317;BME280;67572;50.930;18.276;2023-04-04T13:14:06;99840.84;;;1.11;46.05
78317;BME280;67572;50.930;18.276;2023-04-04T13:17:16;99836.41;;;1.17;46.71
78317;BME280;67572;50.930;18.276;2023-04-04T13:20:20;99840.38;;;1.36;46.75
78317;BME280;67572;50.930;18.276;2023-04-04T13:23:26;99843.66;;;1.47;47.83
78317;BME280;67572;50.930;18.276;2023-04-04T13:26:30;99841.59;;;1.18;48.19
78317;BME280;67572;50.930;18.276;2023-04-04T13:29:34;99841.50;;;1.24;48.60
78317;BME280;67572;50.930;18.276;2023-04-04T13:32:37;99846.50;;;1.35;48.21
78317;BME280;67572;50.930;18.276;2023-04-04T13:35:41;99837.75;;;1.37;46.86
78317;BME280;67572;50.930;18.276;2023-04-04T13:38:47;99842.06;;;1.40;47.41
78317;BME280;67572;50.930;18.276;2023-04-04T13:41:50;99838.34;;;1.07;47.00
78317;BME280;67572;50.930;18.276;2023-04-04T13:44:55;99836.19;;;1.29;48.18
78317;BME280;67572;50.930;18.276;2023-04-04T13:47:59;99833.75;;;1.18;46.88
78317;BME280;67572;50.930;18.276;2023-04-04T13:51:02;99835.44;;;1.21;47.44
78317;BME280;67572;50.930;18.276;2023-04-04T13:54:07;99832.00;;;1.19;47.00
78317;BME280;67572;50.930;18.276;2023-04-04T13:57:12;99827.06;;;1.03;46.74
78317;BME280;67572;50.930;18.276;2023-04-04T14:00:16;99826.88;;;1.13;46.95
78317;BME280;67572;50.930;18.276;2023-04-04T14:03:20;99830.19;;;1.22;47.27
78317;BME280;67572;50.930;18.276;2023-04-04T14:06:24;99832.28;;;1.03;46.93
78317;BME280;67572;50.930;18.276;2023-04-04T14:09:29;99825.25;;;1.05;47.24
78317;BME280;67572;50.930;18.276;2023-04-04T14:12:32;99828.16;;;0.90;46.82
78317;BME280;67572;50.930;18.276;2023-04-04T14:15:36;99828.34;;;0.81;45.92
78317;BME280;67572;50.930;18.276;2023-04-04T14:18:41;99826.19;;;1.03;47.05
78317;BME280;67572;50.930;18.276;2023-04-04T14:21:44;99822.50;;;1.13;46.93
78317;BME280;67572;50.930;18.276;2023-04-04T14:24:49;99821.66;;;1.11;47.13
78317;BME280;67572;50.930;18.276;2023-04-04T14:27:53;99816.16;;;1.25;47.26
78317;BME280;67572;50.930;18.276;2023-04-04T14:30:57;99818.28;;;1.04;48.15
78317;BME280;67572;50.930;18.276;2023-04-04T14:34:02;99820.06;;;1.04;48.31
78317;BME280;67572;50.930;18.276;2023-04-04T14:37:05;99820.47;;;0.81;48.61
78317;BME280;67572;50.930;18.276;2023-04-04T14:40:11;99816.81;;;0.90;49.85
78317;BME280;67572;50.930;18.276;2023-04-04T14:43:14;99823.97;;;0.81;49.54
78317;BME280;67572;50.930;18.276;2023-04-04T14:46:18;99822.28;;;0.79;50.89
78317;BME280;67572;50.930;18.276;2023-04-04T14:49:22;99816.28;;;0.72;50.43
78317;BME280;67572;50.930;18.276;2023-04-04T14:52:26;99810.72;;;0.89;50.30
78317;BME280;67572;50.930;18.276;2023-04-04T14:55:32;99812.56;;;1.30;49.61
78317;BME280;67572;50.930;18.276;2023-04-04T14:58:36;99812.28;;;1.44;49.96
78317;BME280;67572;50.930;18.276;2023-04-04T15:01:39;99805.53;;;1.32;48.80
78317;BME280;67572;50.930;18.276;2023-04-04T15:04:44;99813.69;;;1.17;49.74
78317;BME280;67572;50.930;18.276;2023-04-04T15:07:48;99808.81;;;1.44;49.86
78317;BME280;67572;50.930;18.276;2023-04-04T15:10:53;99806.25;;;1.79;48.57
78317;BME280;67572;50.930;18.276;2023-04-04T15:13:57;99808.38;;;2.02;47.76
78317;BME280;67572;50.930;18.276;2023-04-04T15:17:00;99803.94;;;2.06;47.37
78317;BME280;67572;50.930;18.276;2023-04-04T15:20:05;99794.41;;;1.63;46.98
78317;BME280;67572;50.930;18.276;2023-04-04T15:23:09;99791.31;;;1.84;48.26
78317;BME280;67572;50.930;18.276;2023-04-04T15:26:14;99797.59;;;2.50;47.49
78317;BME280;67572;50.930;18.276;2023-04-04T15:29:17;99783.44;;;2.21;46.19
78317;BME280;67572;50.930;18.276;2023-04-04T15:32:21;99792.22;;;2.20;46.95
78317;BME280;67572;50.930;18.276;2023-04-04T15:35:24;99779.28;;;2.11;45.68
78317;BME280;67572;50.930;18.276;2023-04-04T15:38:28;99785.19;;;2.21;46.44
78317;BME280;67572;50.930;18.276;2023-04-04T15:41:33;99783.31;;;1.90;46.50
78317;BME280;67572;50.930;18.276;2023-04-04T15:44:37;99788.69;;;1.84;46.45
78317;BME280;67572;50.930;18.276;2023-04-04T15:47:41;99784.16;;;1.51;46.45
78317;BME280;67572;50.930;18.276;2023-04-04T15:50:46;99780.50;;;1.59;46.94
78317;BME280;67572;50.930;18.276;2023-04-04T15:53:52;99776.44;;;1.85;46.61
78317;BME280;67572;50.930;18.276;2023-04-04T15:56:57;99783.22;;;1.55;46.73
78317;BME280;67572;50.930;18.276;2023-04-04T16:00:00;99774.13;;;1.31;46.27
78317;BME280;67572;50.930;18.276;2023-04-04T16:03:08;99776.94;;;1.62;47.25
78317;BME280;67572;50.930;18.276;2023-04-04T16:06:12;99776.81;;;1.68;47.09
78317;BME280;67572;50.930;18.276;2023-04-04T16:09:15;99769.59;;;1.39;47.10
78317;BME280;67572;50.930;18.276;2023-04-04T16:12:20;99764.63;;;1.25;47.88
78317;BME280;67572;50.930;18.276;2023-04-04T16:15:26;99766.28;;;1.31;48.29
78317;BME280;67572;50.930;18.276;2023-04-04T16:18:30;99765.78;;;1.12;48.11